Time;durP1;ratioP1;P1;durP2;ratioP2;P2;SDS_P1;SDS_P2;PMS_P1;PMS_P2;Temp;Humidity;BMP_temperature;BMP_pressure;BME280_temperature;BME280_humidity;BME280_pressure;Samples;Min_cycle;Max_cycle;Signal;HPM_P1;HPM_P2
2022/12/04 00:01:10;;;;;;;8.30;2.10;;;;;;;5.31;90.40;101264.47;4908498;29;20083;-48
2022/12/04 00:03:37;;;;;;;3.55;1.63;;;;;;;5.37;90.58;101253.13;4909176;29;20111;-49
2022/12/04 00:06:17;;;;;;;3.13;2.20;;;;;;;5.40;90.41;101259.94;4905976;29;20044;-46
2022/12/04 00:08:45;;;;;;;3.95;1.95;;;;;;;5.42;90.27;101255.78;4903906;29;20052;-52
2022/12/04 00:11:16;;;;;;;6.85;2.15;;;;;;;5.45;90.20;101246.94;4910173;29;20055;-47
2022/12/04 00:13:44;;;;;;;8.48;2.47;;;;;;;5.49;90.33;101247.97;4920990;29;20054;-48
2022/12/04 00:16:14;;;;;;;6.07;2.38;;;;;;;5.53;90.32;101257.22;4923301;29;20051;-47
2022/12/04 00:18:41;;;;;;;9.02;2.22;;;;;;;5.60;90.49;101253.28;4924646;29;20044;-49
2022/12/04 00:21:10;;;;;;;8.45;2.58;;;;;;;5.65;90.69;101250.47;4922532;29;20189;-46
2022/12/04 00:23:38;;;;;;;8.10;2.47;;;;;;;5.70;90.75;101242.13;4920477;29;20110;-45
2022/12/04 00:26:07;;;;;;;8.48;2.30;;;;;;;5.74;90.73;101243.19;4916316;29;20139;-47
2022/12/04 00:28:34;;;;;;;9.07;2.65;;;;;;;5.75;90.48;101244.78;4908649;29;20513;-46
2022/12/04 00:31:06;;;;;;;12.48;2.47;;;;;;;5.75;90.67;101231.88;4909342;29;20048;-46
2022/12/04 00:33:33;;;;;;;11.02;2.42;;;;;;;5.75;90.58;101244.78;4926205;29;20421;-50
2022/12/04 00:36:02;;;;;;;6.32;2.50;;;;;;;5.72;90.41;101242.69;4913823;29;20051;-49
2022/12/04 00:38:29;;;;;;;11.20;3.63;;;;;;;5.68;90.30;101241.63;4909618;29;20380;-45
2022/12/04 00:40:56;;;;;;;7.07;2.67;;;;;;;5.64;90.50;101233.16;4911908;29;20052;-45
2022/12/04 00:43:23;;;;;;;4.13;1.92;;;;;;;5.61;90.81;101232.97;4914807;29;20107;-46
2022/12/04 00:45:49;;;;;;;4.93;1.77;;;;;;;5.57;90.64;101240.97;4927080;29;20058;-51
2022/12/04 00:48:16;;;;;;;4.07;2.05;;;;;;;5.56;90.93;101235.81;4917234;29;20060;-52
2022/12/04 00:50:43;;;;;;;5.68;1.75;;;;;;;5.53;90.74;101242.72;4927431;29;20048;-46
2022/12/04 00:53:10;;;;;;;2.25;1.27;;;;;;;5.52;90.75;101243.81;4923093;29;20501;-46
2022/12/04 00:55:38;;;;;;;3.72;1.77;;;;;;;5.52;90.74;101235.56;4922904;29;20087;-50
2022/12/04 00:58:06;;;;;;;3.95;1.45;;;;;;;5.52;90.45;101239.16;4922626;29;20451;-53
2022/12/04 01:00:38;;;;;;;3.33;1.65;;;;;;;5.52;90.38;101235.56;4911957;29;20505;-46
2022/12/04 01:03:06;;;;;;;3.53;1.42;;;;;;;5.53;90.39;101226.22;4911749;29;20100;-46
2022/12/04 01:05:40;;;;;;;4.93;1.60;;;;;;;5.54;90.38;101233.34;4917738;29;20062;-45
2022/12/04 01:08:08;;;;;;;3.95;1.70;;;;;;;5.54;90.36;101234.16;4923865;29;20451;-46
2022/12/04 01:10:38;;;;;;;2.95;1.35;;;;;;;5.58;90.44;101233.56;4910260;29;20064;-45
2022/12/04 01:13:05;;;;;;;4.90;1.40;;;;;;;5.60;90.38;101225.84;4923617;29;20119;-51
2022/12/04 01:15:32;;;;;;;8.35;2.35;;;;;;;5.62;90.45;101224.41;4921076;29;20044;-46
2022/12/04 01:17:58;;;;;;;5.28;2.40;;;;;;;5.64;90.10;101221.38;4914334;29;20056;-48
2022/12/04 01:20:25;;;;;;;5.65;1.52;;;;;;;5.63;90.06;101228.81;4912793;29;20048;-46
2022/12/04 01:22:52;;;;;;;3.97;1.55;;;;;;;5.64;89.92;101222.19;4918112;29;20059;-46
2022/12/04 01:25:18;;;;;;;7.38;1.55;;;;;;;5.64;90.16;101215.91;4928302;29;20130;-47
2022/12/04 01:27:45;;;;;;;3.58;1.33;;;;;;;5.65;89.94;101225.75;4909871;29;20517;-46
2022/12/04 01:30:12;;;;;;;10.13;1.52;;;;;;;5.69;90.13;101224.03;4927434;29;20055;-52
2022/12/04 01:32:38;;;;;;;3.72;1.20;;;;;;;5.72;89.88;101213.25;4929980;29;20103;-52
2022/12/04 01:35:05;;;;;;;1.55;1.00;;;;;;;5.78;89.60;101225.78;4926543;29;20056;-47
2022/12/04 01:37:32;;;;;;;3.00;1.73;;;;;;;5.83;89.76;101214.69;4929088;29;20039;-49
2022/12/04 01:39:59;;;;;;;5.88;1.20;;;;;;;5.87;89.75;101221.28;4915776;29;20056;-46
2022/12/04 01:42:26;;;;;;;7.78;2.13;;;;;;;5.89;89.72;101218.22;4925289;29;20043;-47
2022/12/04 01:45:27;;;;;;;8.80;1.55;;;;;;;5.89;89.83;101212.72;4913351;29;20043;-46
2022/12/04 01:47:57;;;;;;;4.05;1.00;;;;;;;5.87;89.75;101210.28;4908903;29;20044;-52
2022/12/04 01:50:24;;;;;;;2.10;0.93;;;;;;;5.89;89.86;101207.22;4912342;29;20056;-45
2022/12/04 01:52:50;;;;;;;5.28;1.63;;;;;;;5.88;89.74;101208.31;4918166;29;20079;-46
2022/12/04 01:55:17;;;;;;;7.95;2.25;;;;;;;5.85;89.59;101195.22;4917454;29;20048;-46
2022/12/04 01:57:45;;;;;;;8.65;2.08;;;;;;;5.84;89.82;101210.03;4914830;29;20104;-45
2022/12/04 02:00:14;;;;;;;5.55;1.77;;;;;;;5.82;90.13;101204.03;4915619;29;20561;-46
2022/12/04 02:02:45;;;;;;;5.47;1.50;;;;;;;5.79;90.16;101208.19;4920093;29;20060;-47
2022/12/04 02:05:18;;;;;;;2.90;1.33;;;;;;;5.78;90.24;101206.56;4909955;29;20146;-46
2022/12/04 02:07:47;;;;;;;4.63;2.28;;;;;;;5.77;90.04;101204.13;4932248;29;20036;-47
2022/12/04 02:10:16;;;;;;;7.75;1.95;;;;;;;5.77;90.21;101204.91;4908576;29;20648;-45
2022/12/04 02:12:54;;;;;;;7.45;2.67;;;;;;;5.78;90.27;101213.97;4921256;29;20047;-46
2022/12/04 02:15:36;;;;;;;5.20;1.88;;;;;;;5.77;90.52;101212.38;4908527;29;20058;-46
2022/12/04 02:18:17;;;;;;;6.70;2.73;;;;;;;5.74;90.29;101205.53;4905627;29;20052;-46
2022/12/04 02:20:57;;;;;;;4.47;1.50;;;;;;;5.73;90.33;101211.31;4918069;29;20430;-48
2022/12/04 02:23:38;;;;;;;2.85;1.45;;;;;;;5.70;90.34;101210.00;4915501;29;20091;-45
2022/12/04 02:26:32;;;;;;;5.05;1.70;;;;;;;5.70;90.52;101210.00;4916835;29;20037;-47
2022/12/04 02:29:24;;;;;;;6.60;2.47;;;;;;;5.70;90.76;101210.00;4905136;29;20056;-46
2022/12/04 02:32:08;;;;;;;6.03;1.90;;;;;;;5.73;90.38;101205.81;4928947;29;20055;-47
2022/12/04 02:34:43;;;;;;;3.10;1.73;;;;;;;5.72;90.61;101199.50;4924017;29;20052;-50
2022/12/04 02:37:20;;;;;;;2.55;1.33;;;;;;;5.74;90.43;101208.28;4918118;29;20463;-46
2022/12/04 02:40:02;;;;;;;2.75;1.42;;;;;;;5.77;90.38;101204.13;4921248;29;20178;-47
2022/12/04 02:42:40;;;;;;;5.50;2.10;;;;;;;5.77;90.44;101204.13;4917703;29;20053;-48
2022/12/04 02:45:18;;;;;;;5.05;1.33;;;;;;;5.78;90.40;101195.56;4912505;29;20139;-47
2022/12/04 02:47:46;;;;;;;6.93;2.80;;;;;;;5.80;90.46;101204.31;4914896;29;20079;-45
2022/12/04 02:50:16;;;;;;;4.53;1.90;;;;;;;5.83;90.25;101200.16;4911673;29;20064;-46
2022/12/04 02:52:49;;;;;;;4.72;1.70;;;;;;;5.85;90.08;101215.25;4914760;29;20046;-46
2022/12/04 02:55:22;;;;;;;7.32;2.63;;;;;;;5.83;89.93;101209.22;4916713;29;20066;-46
2022/12/04 02:57:53;;;;;;;2.95;1.40;;;;;;;5.74;89.65;101205.53;4910336;29;20059;-45
2022/12/04 03:03:05;;;;;;;3.78;1.23;;;;;;;5.60;89.60;101203.84;4933767;23;20264;-47
2022/12/04 03:05:47;;;;;;;2.83;1.38;;;;;;;5.58;89.89;101203.34;4944861;29;20118;-45
2022/12/04 03:08:19;;;;;;;4.63;1.70;;;;;;;5.58;89.64;101206.09;4943306;29;20058;-46
2022/12/04 03:10:52;;;;;;;2.83;1.77;;;;;;;5.59;90.14;101218.72;4947535;29;20527;-46
2022/12/04 03:13:25;;;;;;;4.88;2.17;;;;;;;5.60;90.16;101209.34;4950208;29;20043;-45
2022/12/04 03:16:17;;;;;;;2.45;1.58;;;;;;;5.59;90.09;101208.53;4947340;29;20079;-46
2022/12/04 03:18:50;;;;;;;13.73;3.03;;;;;;;5.58;90.19;101206.09;4943568;29;20046;-46
2022/12/04 03:21:19;;;;;;;;;;;;;;;5.58;90.07;101200.59;4930798;29;20142;-53
2022/12/04 03:23:53;;;;;;;4.18;1.77;;;;;;;5.56;89.92;101200.88;4946817;29;19931;-47
2022/12/04 03:26:41;;;;;;;6.90;1.60;;;;;;;5.51;90.14;101190.81;4919759;29;20126;-48
2022/12/04 03:29:14;;;;;;;4.95;2.15;;;;;;;5.51;90.20;101200.97;4933543;29;20051;-50
2022/12/04 03:31:44;;;;;;;4.93;1.88;;;;;;;5.51;90.50;101187.25;4946748;29;20039;-46
2022/12/04 03:34:14;;;;;;;5.13;1.90;;;;;;;5.50;90.42;101180.97;4946925;29;20062;-45
2022/12/04 03:37:13;;;;;;;3.03;1.58;;;;;;;5.52;90.48;101188.88;4917268;29;20047;-47
2022/12/04 03:40:03;;;;;;;1.27;1.10;;;;;;;5.53;90.08;101188.56;4913198;29;20047;-46
2022/12/04 03:42:44;;;;;;;3.50;1.30;;;;;;;5.54;90.00;101187.47;4943454;29;20052;-45
2022/12/04 03:45:19;;;;;;;2.60;1.30;;;;;;;5.54;90.02;101187.47;4928447;29;20517;-48
2022/12/04 03:47:52;;;;;;;3.28;1.10;;;;;;;5.57;90.05;101196.22;4938497;29;20059;-46
2022/12/04 03:50:32;;;;;;;2.78;1.20;;;;;;;5.57;89.80;101187.97;4929586;29;20051;-47
2022/12/04 03:53:06;;;;;;;3.65;1.40;;;;;;;5.58;89.66;101195.13;4926738;29;20498;-46
2022/12/04 03:55:46;;;;;;;1.83;1.52;;;;;;;5.59;89.84;101188.50;4930504;29;20055;-52
2022/12/04 03:58:19;;;;;;;1.90;1.15;;;;;;;5.59;89.48;101185.78;4930755;29;20047;-47
2022/12/04 04:00:47;;;;;;;3.88;1.50;;;;;;;5.60;89.50;101181.88;4930012;29;20102;-46
2022/12/04 04:03:18;;;;;;;1.75;1.17;;;;;;;5.61;89.65;101183.53;4928461;29;20079;-48
2022/12/04 04:05:51;;;;;;;2.13;1.40;;;;;;;5.63;89.17;101195.03;4930439;29;20055;-46
2022/12/04 04:08:26;;;;;;;1.63;1.08;;;;;;;5.64;89.13;101180.97;4930685;29;20512;-46
2022/12/04 04:10:59;;;;;;;4.75;2.55;;;;;;;5.67;88.87;101187.78;4930373;29;20296;-49
2022/12/04 04:24:53;;;;;;;3.92;1.63;;;;;;;5.66;88.18;101188.94;4933243;29;20668;-45
2022/12/04 04:27:20;;;;;;;3.70;2.20;;;;;;;5.63;88.37;101197.78;4926740;29;20072;-49
2022/12/04 04:29:47;;;;;;;2.70;1.10;;;;;;;5.61;88.40;101200.00;4922274;29;20059;-48
2022/12/04 04:32:42;;;;;;;5.40;1.30;;;;;;;5.59;88.63;101197.53;4925123;29;20090;-45
2022/12/04 04:35:20;;;;;;;5.25;1.40;;;;;;;5.60;88.80;101198.38;4925176;29;20056;-46
2022/12/04 04:38:00;;;;;;;2.90;1.23;;;;;;;5.61;88.64;101197.25;4927647;29;20075;-46
2022/12/04 04:40:29;;;;;;;4.93;1.20;;;;;;;5.61;88.45;101200.84;4927026;29;20062;-46
2022/12/04 04:43:10;;;;;;;2.05;0.65;;;;;;;5.62;88.05;101201.63;4928038;29;20039;-51
2022/12/04 04:45:44;;;;;;;1.85;1.10;;;;;;;5.63;88.16;101195.03;4928110;29;20044;-45
2022/12/04 04:48:15;;;;;;;1.58;0.70;;;;;;;5.61;87.91;101191.78;4937583;29;20050;-46
2022/12/04 04:50:43;;;;;;;1.88;1.10;;;;;;;5.62;87.92;101185.13;4927942;29;20899;-48
2022/12/04 04:53:28;;;;;;;1.48;0.90;;;;;;;5.62;87.83;101196.94;4929100;29;20532;-45
2022/12/04 04:55:56;;;;;;;2.65;1.10;;;;;;;5.63;87.97;101178.53;4929889;29;20043;-48
2022/12/04 04:58:22;;;;;;;3.03;1.13;;;;;;;5.63;87.83;101184.03;4929620;29;20040;-46
2022/12/04 05:01:04;;;;;;;4.88;1.75;;;;;;;5.64;88.15;101185.69;4929256;29;20051;-45
2022/12/04 05:03:31;;;;;;;10.43;2.38;;;;;;;5.65;87.95;101184.53;4927808;29;20656;-46
2022/12/04 05:05:58;;;;;;;5.65;1.77;;;;;;;5.66;88.31;101187.00;4928387;29;20059;-45
2022/12/04 05:08:26;;;;;;;4.53;1.75;;;;;;;5.69;88.33;101191.91;4912440;29;20500;-45
2022/12/04 05:10:53;;;;;;;3.90;2.03;;;;;;;5.71;88.36;101197.91;4929502;29;20509;-46
2022/12/04 05:13:20;;;;;;;9.18;1.80;;;;;;;5.74;88.27;101193.72;4915413;29;20079;-45
2022/12/04 05:15:59;;;;;;;6.63;2.17;;;;;;;5.76;88.13;101197.81;4934072;29;20083;-48
2022/12/04 05:18:26;;;;;;;4.65;1.90;;;;;;;5.78;88.23;101184.56;4931483;29;20040;-45
2022/12/04 05:20:53;;;;;;;5.95;1.60;;;;;;;5.81;88.26;101186.72;4930693;29;20732;-50
2022/12/04 05:23:20;;;;;;;3.85;1.10;;;;;;;5.84;87.84;101194.38;4931402;29;20054;-46
2022/12/04 05:25:47;;;;;;;8.05;1.65;;;;;;;5.88;88.08;101194.59;4931808;29;20067;-47
2022/12/04 05:28:14;;;;;;;5.82;1.40;;;;;;;5.90;87.96;101195.94;4932651;29;20482;-46
2022/12/04 05:30:41;;;;;;;2.33;1.25;;;;;;;5.94;87.73;101198.88;4929496;29;20047;-49
2022/12/04 05:33:09;;;;;;;3.78;1.40;;;;;;;5.95;87.30;101197.78;4932609;29;20071;-46
2022/12/04 05:35:36;;;;;;;4.07;1.23;;;;;;;5.95;87.11;101197.78;4931395;29;20588;-46
2022/12/04 05:38:02;;;;;;;12.38;1.23;;;;;;;5.96;86.89;101204.88;4933067;29;20111;-47
2022/12/04 05:40:29;;;;;;;2.67;0.82;;;;;;;5.94;86.43;101205.19;4929957;29;20058;-47
2022/12/04 05:42:56;;;;;;;5.03;1.10;;;;;;;5.94;86.26;101205.19;4929594;29;20044;-49
2022/12/04 05:45:22;;;;;;;1.98;0.93;;;;;;;5.92;86.12;101199.19;4927911;29;21204;-46
2022/12/04 05:47:49;;;;;;;4.72;1.15;;;;;;;5.89;86.19;101207.22;4929172;29;20520;-46
2022/12/04 05:50:16;;;;;;;5.05;0.90;;;;;;;5.87;85.99;101199.28;4928620;29;20062;-50
2022/12/04 05:52:43;;;;;;;4.07;1.38;;;;;;;5.85;85.86;101197.97;4930462;29;20051;-47
2022/12/04 05:55:10;;;;;;;3.58;0.55;;;;;;;5.81;85.62;101205.13;4929008;29;20051;-48
2022/12/04 05:57:37;;;;;;;1.92;0.70;;;;;;;5.80;85.34;101198.81;4931420;29;20682;-47
2022/12/04 06:00:05;;;;;;;5.78;1.20;;;;;;;5.77;85.23;101204.13;4916957;29;20054;-48
2022/12/04 06:02:32;;;;;;;4.45;1.25;;;;;;;5.75;85.09;101201.66;4920601;29;20056;-47
2022/12/04 06:04:59;;;;;;;2.20;1.00;;;;;;;5.73;84.74;101203.09;4930104;29;20079;-49
2022/12/04 06:07:26;;;;;;;4.75;1.13;;;;;;;5.71;84.64;101210.81;4931195;29;20079;-45
2022/12/04 06:09:54;;;;;;;3.67;0.60;;;;;;;5.69;84.34;101205.63;4931726;29;20051;-47
2022/12/04 06:12:21;;;;;;;7.00;0.88;;;;;;;5.67;84.07;101210.59;4930034;29;20075;-46
2022/12/04 06:14:47;;;;;;;3.75;0.47;;;;;;;5.64;83.93;101208.44;4931102;29;20136;-47
2022/12/04 06:17:15;;;;;;;1.90;0.88;;;;;;;5.59;83.62;101208.53;4930372;29;20735;-45
2022/12/04 06:19:42;;;;;;;2.83;0.52;;;;;;;5.56;83.27;101219.31;4929808;29;20047;-46
2022/12/04 06:22:08;;;;;;;1.70;0.77;;;;;;;5.54;83.03;101223.19;4931860;29;20079;-46
2022/12/04 06:24:35;;;;;;;1.50;0.77;;;;;;;5.50;83.04;101218.59;4929340;29;20433;-45
2022/12/04 06:27:02;;;;;;;5.10;0.80;;;;;;;5.49;83.17;101217.78;4928894;29;20059;-46
2022/12/04 06:29:48;;;;;;;4.05;1.08;;;;;;;5.44;83.08;101219.78;4915100;29;20048;-49
2022/12/04 06:32:15;;;;;;;1.48;0.80;;;;;;;5.43;83.27;101218.13;4929244;29;20509;-45
2022/12/04 06:34:51;;;;;;;5.57;0.75;;;;;;;5.39;82.94;101215.19;4915662;29;20143;-50
2022/12/04 06:37:19;;;;;;;1.80;0.32;;;;;;;5.31;82.54;101237.84;4929473;29;20090;-46
2022/12/04 06:39:46;;;;;;;0.75;0.22;;;;;;;5.22;82.27;101253.34;4930622;29;20521;-47
2022/12/04 06:42:13;;;;;;;0.75;0.47;;;;;;;5.10;82.12;101254.91;4929516;29;20379;-48
2022/12/04 06:44:39;;;;;;;1.13;0.77;;;;;;;4.96;82.46;101243.84;4928357;29;20154;-46
2022/12/04 06:47:07;;;;;;;0.52;0.25;;;;;;;4.85;82.56;101247.81;4930847;29;20576;-45
2022/12/04 06:49:35;;;;;;;2.20;0.70;;;;;;;4.74;82.96;101236.16;4931050;29;20458;-45
2022/12/04 06:52:01;;;;;;;1.80;0.52;;;;;;;4.69;83.30;101235.41;4923027;29;20055;-45
2022/12/04 06:54:28;;;;;;;2.67;0.63;;;;;;;4.67;83.73;101230.25;4931778;29;20910;-45
2022/12/04 06:56:55;;;;;;;2.65;0.50;;;;;;;4.68;83.85;101225.56;4931433;29;20111;-45
2022/12/04 06:59:21;;;;;;;1.00;0.43;;;;;;;4.67;84.37;101226.69;4931372;29;20490;-45
2022/12/04 07:01:48;;;;;;;4.90;0.60;;;;;;;4.66;84.33;101228.59;4930861;29;20048;-46
2022/12/04 07:04:16;;;;;;;4.40;0.90;;;;;;;4.67;84.77;101230.25;4931291;29;20056;-49
2022/12/04 07:06:43;;;;;;;3.67;0.77;;;;;;;4.68;84.59;101228.31;4930585;29;20110;-47
2022/12/04 07:09:13;;;;;;;3.53;0.80;;;;;;;4.73;85.04;101223.59;4931523;29;20465;-47
2022/12/04 07:11:41;;;;;;;6.93;0.85;;;;;;;4.79;85.05;101236.09;4931132;29;20062;-45
2022/12/04 07:14:08;;;;;;;2.50;0.60;;;;;;;4.84;85.55;101246.22;4931420;29;20130;-45
2022/12/04 07:16:36;;;;;;;13.32;2.17;;;;;;;4.88;85.33;101241.75;4913783;29;20387;-45
2022/12/04 07:19:12;;;;;;;4.03;1.13;;;;;;;4.90;85.31;101239.53;4926587;29;20040;-53
2022/12/04 07:21:39;;;;;;;3.10;0.90;;;;;;;4.90;85.25;101237.59;4930376;29;20078;-46
2022/12/04 07:24:06;;;;;;;1.52;0.95;;;;;;;4.91;85.42;101252.13;4929415;29;20413;-48
2022/12/04 07:26:33;;;;;;;2.03;0.57;;;;;;;4.89;85.34;101248.88;4928695;29;20048;-49
2022/12/04 07:29:00;;;;;;;2.72;0.80;;;;;;;4.87;85.44;101251.91;4925170;29;20055;-46
2022/12/04 07:31:28;;;;;;;6.72;1.08;;;;;;;4.83;85.35;101256.34;4929464;29;20059;-51
2022/12/04 07:33:56;;;;;;;1.65;1.05;;;;;;;4.79;85.34;101257.25;4928939;29;20058;-46
2022/12/04 07:36:24;;;;;;;4.15;1.10;;;;;;;4.76;85.66;101260.56;4911620;29;20150;-45
2022/12/04 07:38:50;;;;;;;6.50;1.00;;;;;;;4.70;85.74;101256.25;4930043;29;20465;-45
2022/12/04 07:41:18;;;;;;;3.15;0.95;;;;;;;4.66;85.86;101249.75;4919077;29;20055;-45
2022/12/04 07:43:46;;;;;;;1.63;0.73;;;;;;;4.61;86.22;101250.59;4927436;29;20310;-45
2022/12/04 07:46:19;;;;;;;4.65;1.58;;;;;;;4.60;86.25;101246.25;4926923;29;20054;-51
2022/12/04 07:48:46;;;;;;;4.43;2.03;;;;;;;4.59;86.58;101236.38;4924498;29;20052;-45
2022/12/04 07:51:25;;;;;;;3.17;1.40;;;;;;;4.62;86.77;101237.72;4928620;29;20146;-46
2022/12/04 07:53:53;;;;;;;6.32;1.50;;;;;;;4.62;86.61;101233.03;4929584;29;20058;-45
2022/12/04 07:56:20;;;;;;;3.58;1.23;;;;;;;4.62;86.78;101240.44;4928517;29;20051;-46
2022/12/04 07:58:48;;;;;;;2.45;1.98;;;;;;;4.62;87.22;101229.47;4928444;29;20102;-49
2022/12/04 08:01:18;;;;;;;1.77;0.93;;;;;;;4.64;87.05;101230.81;4910852;29;20063;-49
2022/12/04 08:03:48;;;;;;;1.75;0.93;;;;;;;4.66;87.06;101244.25;4929948;29;20066;-46
2022/12/04 08:06:17;;;;;;;6.90;1.83;;;;;;;4.66;87.27;101244.25;4930000;29;20074;-46
2022/12/04 08:08:45;;;;;;;8.65;0.90;;;;;;;4.67;87.37;101246.69;4924633;29;20046;-45
2022/12/04 08:11:15;;;;;;;4.53;0.80;;;;;;;4.70;87.42;101250.78;4926322;29;20102;-46
2022/12/04 08:13:42;;;;;;;3.80;0.73;;;;;;;4.73;87.49;101261.16;4925609;29;20055;-47
2022/12/04 08:16:10;;;;;;;6.97;2.65;;;;;;;4.77;87.27;101262.19;4926796;29;20043;-49
2022/12/04 08:18:39;;;;;;;3.20;1.08;;;;;;;4.76;87.05;101250.44;4926672;29;20288;-54
2022/12/04 08:21:14;;;;;;;4.90;1.02;;;;;;;4.76;87.32;101255.09;4929598;29;20059;-45
2022/12/04 08:23:42;;;;;;;2.33;0.80;;;;;;;4.75;87.26;101247.97;4927996;29;20491;-46
2022/12/04 08:26:09;;;;;;;8.45;1.08;;;;;;;4.75;87.34;101253.44;4928288;29;20066;-47
2022/12/04 08:28:36;;;;;;;3.92;1.25;;;;;;;4.76;87.29;101244.13;4934887;29;20059;-45
2022/12/04 08:31:10;;;;;;;5.53;1.83;;;;;;;4.76;87.44;101252.34;4930082;29;20540;-50
2022/12/04 08:33:38;;;;;;;2.10;0.88;;;;;;;4.75;87.19;101242.47;4929937;29;20545;-50
2022/12/04 08:36:06;;;;;;;7.32;1.15;;;;;;;4.77;87.33;101237.50;4930228;29;20052;-45
2022/12/04 08:38:33;;;;;;;2.50;1.00;;;;;;;4.80;87.35;101234.19;4930038;29;20052;-45
2022/12/04 08:41:00;;;;;;;4.07;1.42;;;;;;;4.83;87.54;101239.06;4929877;29;20142;-47
2022/12/04 08:43:28;;;;;;;3.88;1.33;;;;;;;4.85;87.77;101234.94;4928686;29;20059;-51
2022/12/04 08:45:59;;;;;;;4.85;1.05;;;;;;;4.87;87.96;101237.41;4928579;29;20462;-47
2022/12/04 08:48:27;;;;;;;6.28;0.95;;;;;;;4.88;87.74;101241.75;4913062;29;20534;-51
2022/12/04 08:50:54;;;;;;;6.18;1.25;;;;;;;4.87;87.67;101248.38;4912568;29;20512;-45
2022/12/04 08:53:21;;;;;;;5.43;1.52;;;;;;;4.86;87.57;101249.47;4929626;29;20056;-46
2022/12/04 08:55:48;;;;;;;4.78;1.10;;;;;;;4.86;87.83;101260.44;4929714;29;20052;-46
2022/12/04 08:58:15;;;;;;;6.15;1.20;;;;;;;4.87;87.93;101264.81;4930078;29;20047;-46
2022/12/04 09:00:43;;;;;;;5.30;1.25;;;;;;;4.84;87.79;101251.69;4907852;29;20051;-46
2022/12/04 09:03:15;;;;;;;2.72;0.60;;;;;;;4.82;87.90;101264.88;4922120;29;20048;-46
2022/12/04 09:05:44;;;;;;;3.33;0.45;;;;;;;4.78;88.13;101269.31;4910282;29;20060;-45
2022/12/04 09:08:13;;;;;;;1.92;0.52;;;;;;;4.74;88.30;101260.03;4908843;29;20478;-45
2022/12/04 09:10:41;;;;;;;4.95;0.85;;;;;;;4.74;88.30;101262.78;4907009;29;20086;-48
2022/12/04 09:13:08;;;;;;;2.75;1.08;;;;;;;4.73;88.71;101266.66;4910487;29;20048;-46
2022/12/04 09:15:38;;;;;;;3.03;0.98;;;;;;;4.74;88.65;101265.53;4909662;29;20048;-46
2022/12/04 09:18:06;;;;;;;5.65;1.42;;;;;;;4.74;88.78;101269.09;4910775;29;20410;-45
2022/12/04 09:20:33;;;;;;;3.60;1.33;;;;;;;4.75;88.65;101264.41;4894259;29;20051;-46
2022/12/04 09:23:00;;;;;;;5.60;2.20;;;;;;;4.74;88.46;101263.59;4903485;29;20108;-46
2022/12/04 09:25:33;;;;;;;1.02;0.90;;;;;;;4.75;88.75;101276.22;4909845;29;20037;-44
2022/12/04 09:28:00;;;;;;;4.88;1.45;;;;;;;4.80;88.92;101267.91;4891101;29;20044;-45
2022/12/04 09:30:27;;;;;;;4.43;1.20;;;;;;;4.85;88.91;101269.75;4903424;29;20140;-46
2022/12/04 09:32:53;;;;;;;6.93;3.80;;;;;;;4.87;88.92;101259.34;4894378;29;20075;-45
2022/12/04 09:35:20;;;;;;;6.50;1.10;;;;;;;4.92;88.88;101264.75;4909831;29;20052;-48
2022/12/04 09:37:47;;;;;;;13.20;9.10;;;;;;;4.99;89.13;101276.16;4906013;29;20803;-44
2022/12/04 09:40:39;;;;;;;9.30;1.73;;;;;;;5.04;89.21;101281.59;4907671;29;20566;-48
2022/12/04 09:43:15;;;;;;;;;;;;;;;5.02;89.28;101270.09;4910120;29;20056;-48
2022/12/04 09:45:47;;;;;;;6.72;1.70;;;;;;;5.01;89.25;101268.47;4909290;29;19927;-47
2022/12/04 09:48:17;;;;;;;6.38;2.95;;;;;;;5.02;89.11;101269.28;4905132;29;20055;-46
2022/12/04 09:50:46;;;;;;;36.35;15.88;;;;;;;5.06;89.26;101275.78;4909511;29;20044;-45
2022/12/04 09:53:25;;;;;;;16.70;7.80;;;;;;;5.11;89.48;101264.78;4910311;29;20052;-45
2022/12/04 09:55:55;;;;;;;9.85;2.30;;;;;;;5.18;89.61;101266.03;4910271;29;20063;-46
2022/12/04 09:58:34;;;;;;;7.38;1.80;;;;;;;5.26;89.75;101270.84;4911745;29;20056;-47
2022/12/04 10:01:03;;;;;;;4.22;1.50;;;;;;;5.32;89.57;101272.38;4917156;29;20055;-45
2022/12/04 10:03:30;;;;;;;5.60;1.70;;;;;;;5.35;89.50;101274.53;4932592;29;20077;-45
2022/12/04 10:06:18;;;;;;;3.78;1.95;;;;;;;5.41;89.56;101286.28;4915447;29;20058;-42
2022/12/04 10:08:52;;;;;;;4.13;1.15;;;;;;;5.42;89.36;101296.97;4930573;29;20131;-46
2022/12/04 10:11:35;;;;;;;4.15;1.50;;;;;;;5.38;89.47;101284.94;4927362;29;20740;-46
2022/12/04 10:14:02;;;;;;;5.23;1.50;;;;;;;5.37;89.42;101291.56;4924141;29;20059;-48
2022/12/04 10:16:48;;;;;;;3.33;1.38;;;;;;;5.35;89.58;101296.50;4923551;29;20054;-43
2022/12/04 10:19:47;;;;;;;2.17;1.00;;;;;;;5.31;89.74;101309.22;4927061;29;20058;-46
2022/12/04 10:22:25;;;;;;;3.63;1.90;;;;;;;5.26;89.72;101301.06;4920342;29;20048;-45
2022/12/04 10:24:55;;;;;;;5.50;2.10;;;;;;;5.18;90.16;101298.97;4931786;29;20051;-44
2022/12/04 10:28:06;;;;;;;3.72;1.20;;;;;;;5.18;90.10;101312.69;4931452;29;20059;-45
2022/12/04 10:30:35;;;;;;;3.90;1.10;;;;;;;5.19;90.27;101303.31;4931190;29;20508;-46
2022/12/04 10:33:17;;;;;;;8.68;1.73;;;;;;;5.20;90.51;101309.63;4930100;29;20138;-47
2022/12/04 10:35:50;;;;;;;5.07;1.92;;;;;;;5.21;90.60;101295.63;4925313;29;20074;-47
2022/12/04 10:38:43;;;;;;;6.25;1.55;;;;;;;5.21;90.79;101290.16;4929155;29;20054;-48
2022/12/04 10:41:34;;;;;;;3.28;1.35;;;;;;;5.21;90.78;101283.84;4929039;29;20051;-45
2022/12/04 10:44:01;;;;;;;2.88;2.05;;;;;;;5.20;91.01;101280.28;4929810;29;20466;-47
2022/12/04 10:46:31;;;;;;;4.15;1.00;;;;;;;5.21;91.08;101284.66;4929582;29;20521;-45
2022/12/04 10:49:01;;;;;;;3.17;1.20;;;;;;;5.20;91.29;101277.53;4931713;29;20048;-44
2022/12/04 10:51:39;;;;;;;4.40;1.73;;;;;;;5.23;91.32;101273.38;4926304;29;20457;-46
2022/12/04 10:54:17;;;;;;;8.05;1.85;;;;;;;5.28;91.24;101274.13;4930600;29;20048;-45
2022/12/04 10:56:54;;;;;;;6.07;2.08;;;;;;;5.33;91.54;101276.78;4896646;29;20055;-48
2022/12/04 10:59:22;;;;;;;5.85;2.50;;;;;;;5.40;91.53;101279.97;4895275;29;20186;-47
2022/12/04 11:01:50;;;;;;;9.10;3.05;;;;;;;5.47;91.35;101277.66;4883210;29;20051;-45
2022/12/04 11:04:25;;;;;;;4.20;2.17;;;;;;;5.53;91.37;101264.69;4896561;29;20060;-48
2022/12/04 11:07:06;;;;;;;4.78;2.22;;;;;;;5.57;91.33;101268.44;4896883;29;20054;-47
2022/12/04 11:09:33;;;;;;;9.77;1.90;;;;;;;5.63;91.24;101253.53;4893312;29;20055;-45
2022/12/04 11:12:16;;;;;;;6.47;1.52;;;;;;;5.73;91.19;101258.03;4896591;29;20518;-45
2022/12/04 11:14:43;;;;;;;3.80;1.38;;;;;;;5.78;91.08;101249.69;4895693;29;20059;-48
2022/12/04 11:17:18;;;;;;;4.82;1.42;;;;;;;5.87;91.23;101253.44;4896255;29;20062;-48
2022/12/04 11:19:45;;;;;;;4.95;1.33;;;;;;;5.96;91.09;101243.34;4896246;29;20051;-48
2022/12/04 11:22:14;;;;;;;2.55;1.30;;;;;;;6.10;91.17;101244.19;4895992;29;20047;-52
2022/12/04 11:24:48;;;;;;;9.35;1.48;;;;;;;6.26;90.82;101247.47;4896426;29;20048;-49
2022/12/04 11:27:22;;;;;;;6.70;1.58;;;;;;;6.42;90.60;101251.56;4897081;29;20052;-46
2022/12/04 11:29:49;;;;;;;11.20;2.50;;;;;;;6.46;90.27;101249.84;4897500;29;20060;-49
2022/12/04 11:32:28;;;;;;;3.60;1.42;;;;;;;6.45;90.20;101249.03;4893461;29;20067;-45
2022/12/04 11:35:06;;;;;;;6.15;1.27;;;;;;;6.41;90.22;101239.75;4896759;29;20047;-47
2022/12/04 11:37:33;;;;;;;6.80;2.15;;;;;;;6.38;90.18;101243.09;4893590;29;20036;-44
2022/12/04 11:40:13;;;;;;;1.17;0.80;;;;;;;6.34;90.04;101241.28;4898100;29;20054;-50
2022/12/04 11:42:40;;;;;;;3.50;0.68;;;;;;;6.30;90.08;101238.31;4912938;29;20055;-49
2022/12/04 11:45:22;;;;;;;3.67;0.82;;;;;;;6.31;90.00;101242.69;4898946;29;20136;-48
2022/12/04 11:47:59;;;;;;;2.67;0.90;;;;;;;6.32;89.91;101238.84;4899204;29;20047;-47
2022/12/04 11:50:55;;;;;;;3.42;1.75;;;;;;;6.35;89.80;101238.25;4898453;29;20972;-44
2022/12/04 11:53:36;;;;;;;4.88;1.10;;;;;;;6.33;89.25;101240.44;4878627;29;20139;-47
2022/12/04 11:56:21;;;;;;;8.20;2.13;;;;;;;6.30;89.37;101241.06;4898861;29;20063;-48
2022/12/04 11:58:50;;;;;;;2.85;1.10;;;;;;;6.28;89.23;101225.97;4904860;29;20399;-44
2022/12/04 12:01:23;;;;;;;4.18;1.75;;;;;;;6.26;89.26;101230.97;4928544;29;20063;-45
2022/12/04 12:04:18;;;;;;;6.53;0.80;;;;;;;6.26;89.41;101222.72;4896406;29;20051;-45
2022/12/04 12:07:15;;;;;;;0.77;0.30;;;;;;;6.27;89.25;101227.94;4912964;29;20447;-46
2022/12/04 12:09:50;;;;;;;4.05;0.98;;;;;;;6.29;89.03;101231.19;4883857;29;20554;-47